createdAt,value
2022-09-07T00:01:03.648Z,13.80
2022-09-07T00:03:30.319Z,13.72
2022-09-07T00:05:57.686Z,13.76
2022-09-07T00:08:27.264Z,13.79
2022-09-07T00:11:02.284Z,13.83
2022-09-07T00:13:32.076Z,13.85
2022-09-07T00:16:03.626Z,13.90
2022-09-07T00:18:31.463Z,13.92
2022-09-07T00:20:59.908Z,13.92
2022-09-07T00:23:27.325Z,13.91
2022-09-07T00:25:54.291Z,13.93
2022-09-07T00:28:20.955Z,13.89
2022-09-07T00:30:47.575Z,13.89
2022-09-07T00:33:14.151Z,13.88
2022-09-07T00:35:41.455Z,13.93
2022-09-07T00:38:08.815Z,13.97
2022-09-07T00:40:35.875Z,13.90
2022-09-07T00:43:02.555Z,13.83
2022-09-07T00:45:29.364Z,13.87
2022-09-07T00:48:13.709Z,13.84
2022-09-07T00:50:46.322Z,13.85
2022-09-07T00:53:19.616Z,13.82
2022-09-07T00:55:49.441Z,13.85
2022-09-07T00:58:17.603Z,13.89
2022-09-07T01:00:46.568Z,13.81
2022-09-07T01:03:16.627Z,13.80
2022-09-07T01:05:48.343Z,13.82
2022-09-07T01:08:15.315Z,13.83
2022-09-07T01:10:41.960Z,13.68
2022-09-07T01:13:08.662Z,13.72
2022-09-07T01:15:44.183Z,13.71
2022-09-07T01:18:29.325Z,13.65
2022-09-07T01:21:14.509Z,13.65
2022-09-07T01:24:25.421Z,13.67
2022-09-07T01:27:07.278Z,13.63
2022-09-07T01:29:46.358Z,13.65
2022-09-07T01:32:36.300Z,13.60
2022-09-07T01:35:12.112Z,13.63
2022-09-07T01:37:47.025Z,13.58
2022-09-07T01:40:19.267Z,13.55
2022-09-07T01:43:02.475Z,13.57
2022-09-07T01:45:35.802Z,13.54
2022-09-07T01:48:07.385Z,13.52
2022-09-07T01:50:49.652Z,13.50
2022-09-07T01:53:24.841Z,13.47
2022-09-07T01:56:06.498Z,13.43
2022-09-07T01:58:46.254Z,13.43
2022-09-07T02:01:16.451Z,13.45
2022-09-07T02:03:54.165Z,13.42
2022-09-07T02:06:26.852Z,13.41
2022-09-07T02:08:58.542Z,13.41
2022-09-07T02:11:42.265Z,13.39
2022-09-07T02:14:36.976Z,13.30
2022-09-07T02:17:25.204Z,13.32
2022-09-07T02:20:00.217Z,13.32
2022-09-07T02:22:31.983Z,13.33
2022-09-07T02:25:02.645Z,13.30
2022-09-07T02:27:41.211Z,13.28
2022-09-07T02:30:08.404Z,13.23
2022-09-07T02:32:35.058Z,13.19
2022-09-07T02:35:02.554Z,13.18
2022-09-07T02:37:29.649Z,13.18
2022-09-07T02:39:56.269Z,13.17
2022-09-07T02:42:23.178Z,13.08
2022-09-07T02:44:49.883Z,13.11
2022-09-07T02:47:25.599Z,13.08
2022-09-07T02:50:20.972Z,13.09
2022-09-07T02:53:06.480Z,13.02
2022-09-07T02:55:44.946Z,13.00
2022-09-07T02:58:23.422Z,13.03
2022-09-07T03:01:29.980Z,13.05
2022-09-07T03:04:20.489Z,12.98
2022-09-07T03:06:57.645Z,12.98
2022-09-07T03:09:30.500Z,13.03
2022-09-07T03:11:57.567Z,13.02
2022-09-07T03:14:26.188Z,13.03
2022-09-07T03:16:56.588Z,13.02
2022-09-07T03:19:23.240Z,13.04
2022-09-07T03:21:49.850Z,13.04
2022-09-07T03:24:16.566Z,13.01
2022-09-07T03:26:46.607Z,12.99
2022-09-07T03:29:13.400Z,12.95
2022-09-07T03:31:40.069Z,12.92
2022-09-07T03:34:07.341Z,12.96
2022-09-07T03:36:34.730Z,12.95
2022-09-07T03:39:01.637Z,12.94
2022-09-07T03:41:28.880Z,12.97
2022-09-07T03:43:55.672Z,13.01
2022-09-07T03:46:22.847Z,13.00
2022-09-07T03:48:50.478Z,13.03
2022-09-07T03:51:18.400Z,12.97
2022-09-07T03:53:46.651Z,12.99
2022-09-07T03:56:16.251Z,12.98
2022-09-07T03:58:42.847Z,13.03
2022-09-07T04:01:13.431Z,12.99
2022-09-07T04:03:40.196Z,12.91
2022-09-07T04:06:07.092Z,12.93
2022-09-07T04:08:35.464Z,12.85
2022-09-07T04:11:03.918Z,12.86
2022-09-07T04:13:31.255Z,12.88
2022-09-07T04:15:58.291Z,12.88
2022-09-07T04:18:25.079Z,12.88
2022-09-07T04:20:52.102Z,12.90
2022-09-07T04:23:19.380Z,12.92
2022-09-07T04:25:49.980Z,12.90
2022-09-07T04:28:18.535Z,12.94
2022-09-07T04:30:45.547Z,12.92
2022-09-07T04:33:13.339Z,12.95
2022-09-07T04:35:41.501Z,12.90
2022-09-07T04:38:12.495Z,12.85
2022-09-07T04:40:39.183Z,12.88
2022-09-07T04:43:07.345Z,12.95
2022-09-07T04:45:39.699Z,13.00
2022-09-07T04:48:06.527Z,13.06
2022-09-07T04:50:33.769Z,13.07
2022-09-07T04:53:00.444Z,13.13
2022-09-07T04:55:27.915Z,13.11
2022-09-07T04:57:54.551Z,13.20
2022-09-07T05:00:21.160Z,13.25
2022-09-07T05:02:47.815Z,13.24
2022-09-07T05:05:14.764Z,13.13
2022-09-07T05:07:41.489Z,13.18
2022-09-07T05:10:08.429Z,13.25
2022-09-07T05:12:35.238Z,13.29
2022-09-07T05:15:01.862Z,13.30
2022-09-07T05:17:31.092Z,13.36
2022-09-07T05:19:58.537Z,13.39
2022-09-07T05:22:25.429Z,13.44
2022-09-07T05:24:52.020Z,13.47
2022-09-07T05:27:18.598Z,13.49
2022-09-07T05:30:01.103Z,13.60
2022-09-07T05:32:28.138Z,13.67
2022-09-07T05:34:54.753Z,13.89
2022-09-07T05:37:21.424Z,13.78
2022-09-07T05:39:48.279Z,13.83
2022-09-07T05:42:15.028Z,14.05
2022-09-07T05:47:09.175Z,14.28
2022-09-07T05:49:35.958Z,14.32
2022-09-07T05:52:02.787Z,14.29
2022-09-07T05:54:29.410Z,14.31
2022-09-07T05:56:56.038Z,14.37
2022-09-07T05:59:22.674Z,14.53
2022-09-07T06:01:49.391Z,14.49
2022-09-07T06:04:16.219Z,14.57
2022-09-07T06:06:54.632Z,14.61
2022-09-07T06:09:31.514Z,14.65
2022-09-07T06:11:58.175Z,14.96
2022-09-07T06:14:25.157Z,15.97
2022-09-07T06:16:51.880Z,17.04
2022-09-07T06:19:18.533Z,17.96
2022-09-07T06:21:45.122Z,18.60
2022-09-07T06:24:11.718Z,19.51
2022-09-07T06:26:38.363Z,20.09
2022-09-07T06:29:05.007Z,20.49
2022-09-07T06:31:31.972Z,20.76
2022-09-07T06:33:58.904Z,20.64
2022-09-07T06:36:27.857Z,21.10
2022-09-07T06:38:56.012Z,21.76
2022-09-07T06:44:12.623Z,22.29
2022-09-07T06:49:26.167Z,22.82
2022-09-07T06:51:52.972Z,23.70
2022-09-07T06:57:09.308Z,23.85
2022-09-07T06:59:37.403Z,23.96
2022-09-07T07:02:07.915Z,24.67
2022-09-07T07:04:39.754Z,24.88
2022-09-07T07:07:11.055Z,25.63
2022-09-07T07:09:38.270Z,26.24
2022-09-07T07:12:04.931Z,26.48
2022-09-07T07:14:34.393Z,25.70
2022-09-07T07:17:01.649Z,24.74
2022-09-07T07:19:28.608Z,24.23
2022-09-07T07:22:14.283Z,24.00
2022-09-07T07:24:41.839Z,23.82
2022-09-07T07:27:08.467Z,23.59
2022-09-07T07:29:35.111Z,23.38
2022-09-07T07:32:01.992Z,23.67
2022-09-07T07:34:28.725Z,23.91
2022-09-07T07:36:55.290Z,24.26
2022-09-07T07:42:09.280Z,23.79
2022-09-07T07:44:35.850Z,23.38
2022-09-07T07:47:02.883Z,22.51
2022-09-07T07:49:29.499Z,21.76
2022-09-07T07:54:43.678Z,21.76
2022-09-07T07:57:10.465Z,21.51
2022-09-07T07:59:37.307Z,21.04
2022-09-07T08:02:06.096Z,20.62
2022-09-07T08:04:36.243Z,20.96
2022-09-07T08:07:09.608Z,21.25
2022-09-07T08:09:40.899Z,21.64
2022-09-07T08:12:09.081Z,21.55
2022-09-07T08:14:41.959Z,21.23
2022-09-07T08:17:14.345Z,21.00
2022-09-07T08:19:41.540Z,21.46
2022-09-07T08:22:09.808Z,21.69
2022-09-07T08:24:36.440Z,21.15
2022-09-07T08:27:04.021Z,21.30
2022-09-07T08:29:34.653Z,21.67
2022-09-07T08:32:03.708Z,22.00
2022-09-07T08:34:30.287Z,22.32
2022-09-07T08:36:56.842Z,22.32
2022-09-07T08:39:23.359Z,22.52
2022-09-07T08:42:19.360Z,22.36
2022-09-07T08:44:51.105Z,22.29
2022-09-07T08:47:35.355Z,22.79
2022-09-07T08:50:10.064Z,23.11
2022-09-07T08:52:50.098Z,22.81
2022-09-07T08:55:20.446Z,23.11
2022-09-07T08:58:14.540Z,23.35
2022-09-07T09:01:30.684Z,23.47
2022-09-07T09:06:49.796Z,23.62
2022-09-07T09:09:50.478Z,23.84
2022-09-07T09:12:37.483Z,23.95
2022-09-07T09:15:23.349Z,23.90
2022-09-07T09:18:05.224Z,24.09
2022-09-07T09:20:53.882Z,23.75
2022-09-07T09:23:36.879Z,23.52
2022-09-07T09:26:13.759Z,23.57
2022-09-07T09:28:40.544Z,23.66
2022-09-07T09:31:17.005Z,23.50
2022-09-07T09:33:43.829Z,23.52
2022-09-07T09:36:25.948Z,23.85
2022-09-07T09:38:52.565Z,24.14
2022-09-07T09:41:19.250Z,24.35
2022-09-07T09:43:51.833Z,24.31
2022-09-07T09:46:24.373Z,24.05
2022-09-07T09:49:14.091Z,24.24
2022-09-07T09:54:43.525Z,24.74
2022-09-07T09:57:16.850Z,24.95
2022-09-07T10:00:01.958Z,25.02
2022-09-07T10:05:33.453Z,25.05
2022-09-07T10:08:00.246Z,24.89
2022-09-07T10:10:28.614Z,24.94
2022-09-07T10:12:56.344Z,25.11
2022-09-07T10:15:40.917Z,25.32
2022-09-07T10:18:18.809Z,25.31
2022-09-07T10:20:45.504Z,25.46
2022-09-07T10:23:27.569Z,25.56
2022-09-07T10:25:54.118Z,25.41
2022-09-07T10:28:23.724Z,25.23
2022-09-07T10:31:12.325Z,25.54
2022-09-07T10:36:51.527Z,25.04
2022-09-07T10:39:23.625Z,25.19
2022-09-07T10:42:09.968Z,25.41
2022-09-07T10:44:51.946Z,25.41
2022-09-07T10:47:46.922Z,25.43
2022-09-07T10:50:24.801Z,25.69
2022-09-07T10:52:56.836Z,25.62
2022-09-07T10:55:54.959Z,25.83
2022-09-07T11:01:34.980Z,25.91
2022-09-07T11:04:20.365Z,25.35
2022-09-07T11:06:55.100Z,25.38
2022-09-07T11:09:50.930Z,25.65
2022-09-07T11:12:28.062Z,25.71
2022-09-07T11:15:13.045Z,25.80
2022-09-07T11:17:49.377Z,25.81
2022-09-07T11:20:58.954Z,25.93
2022-09-07T11:23:41.499Z,25.78
2022-09-07T11:26:29.066Z,25.91
2022-09-07T11:29:31.390Z,25.84
2022-09-07T11:32:04.690Z,25.72
2022-09-07T11:34:39.009Z,25.91
2022-09-07T11:37:25.521Z,25.95
2022-09-07T11:40:05.095Z,26.04
2022-09-07T11:42:43.554Z,25.98
2022-09-07T11:45:19.320Z,25.62
2022-09-07T11:48:10.976Z,25.43
2022-09-07T11:50:46.281Z,25.41
2022-09-07T11:53:18.368Z,25.51
2022-09-07T11:55:49.640Z,25.77
2022-09-07T11:58:53.745Z,25.71
2022-09-07T12:02:00.355Z,25.87
2022-09-07T12:04:40.064Z,25.74
2022-09-07T12:07:37.136Z,25.94
2022-09-07T12:11:00.063Z,25.86
2022-09-07T12:13:39.315Z,26.03
2022-09-07T12:16:37.733Z,25.98
2022-09-07T12:19:21.362Z,25.87
2022-09-07T12:21:53.741Z,26.00
2022-09-07T12:24:53.495Z,25.99
2022-09-07T12:27:19.967Z,26.15
2022-09-07T12:30:10.943Z,26.28
2022-09-07T12:32:57.489Z,26.33
2022-09-07T12:35:45.322Z,26.22
2022-09-07T12:38:17.735Z,26.14
2022-09-07T12:41:03.808Z,26.17
2022-09-07T12:43:51.762Z,26.29
2022-09-07T12:46:38.536Z,26.35
2022-09-07T12:49:29.364Z,26.55
2022-09-07T12:52:14.912Z,26.74
2022-09-07T12:55:23.660Z,26.89
2022-09-07T12:57:59.035Z,26.97
2022-09-07T13:00:54.971Z,27.00
2022-09-07T13:09:37.517Z,27.04
2022-09-07T13:15:11.025Z,26.89
2022-09-07T13:17:54.803Z,26.38
2022-09-07T13:20:30.082Z,26.39
2022-09-07T13:23:08.265Z,26.50
2022-09-07T13:25:37.587Z,26.63
2022-09-07T13:28:13.969Z,26.70
2022-09-07T13:30:46.045Z,26.63
2022-09-07T13:33:25.060Z,26.68
2022-09-07T13:35:54.609Z,26.68
2022-09-07T13:38:21.843Z,26.52
2022-09-07T13:40:52.167Z,26.44
2022-09-07T13:43:23.585Z,26.51
2022-09-07T13:45:53.415Z,26.55
2022-09-07T13:48:38.437Z,26.51
2022-09-07T13:51:22.005Z,26.59
2022-09-07T13:54:15.297Z,26.29
2022-09-07T13:57:02.315Z,26.39
2022-09-07T13:59:33.483Z,26.48
2022-09-07T14:02:00.471Z,26.55
2022-09-07T14:04:51.343Z,26.62
2022-09-07T14:07:23.745Z,26.73
2022-09-07T14:10:04.252Z,26.80
2022-09-07T14:12:31.275Z,26.84
2022-09-07T14:15:18.803Z,26.57
2022-09-07T14:17:46.375Z,26.59
2022-09-07T14:20:17.712Z,26.60
2022-09-07T14:22:45.998Z,26.66
2022-09-07T14:25:22.816Z,26.69
2022-09-07T14:27:49.832Z,26.61
2022-09-07T14:30:29.467Z,26.72
2022-09-07T14:33:06.020Z,26.83
2022-09-07T14:35:34.737Z,26.88
2022-09-07T14:38:11.572Z,26.89
2022-09-07T14:40:38.305Z,26.86
2022-09-07T14:43:32.308Z,26.75
2022-09-07T14:46:17.824Z,26.57
2022-09-07T14:48:46.985Z,26.53
2022-09-07T14:51:35.051Z,26.39
2022-09-07T14:54:07.564Z,26.41
2022-09-07T14:56:39.404Z,26.36
2022-09-07T14:59:38.922Z,26.29
2022-09-07T15:02:14.744Z,26.23
2022-09-07T15:04:41.402Z,26.14
2022-09-07T15:07:39.736Z,26.09
2022-09-07T15:10:25.688Z,26.07
2022-09-07T15:12:55.244Z,26.04
2022-09-07T15:15:26.764Z,26.00
2022-09-07T15:18:03.205Z,25.96
2022-09-07T15:20:44.025Z,25.91
2022-09-07T15:23:10.574Z,25.83
2022-09-07T15:25:37.379Z,25.78
2022-09-07T15:28:04.958Z,25.75
2022-09-07T15:30:33.396Z,25.67
2022-09-07T15:33:00.114Z,25.65
2022-09-07T15:35:26.990Z,25.55
2022-09-07T15:38:01.872Z,25.47
2022-09-07T15:40:36.433Z,25.38
2022-09-07T15:43:13.649Z,25.30
2022-09-07T15:45:51.289Z,25.27
2022-09-07T15:48:21.677Z,25.21
2022-09-07T15:50:49.025Z,25.22
2022-09-07T15:56:03.825Z,25.16
2022-09-07T15:58:30.653Z,25.09
2022-09-07T16:03:54.589Z,24.99
2022-09-07T16:06:22.786Z,24.94
2022-09-07T16:08:51.502Z,24.88
2022-09-07T16:11:23.902Z,24.82
2022-09-07T16:14:01.831Z,24.78
2022-09-07T16:19:20.483Z,24.60
2022-09-07T16:21:47.641Z,24.50
2022-09-07T16:24:14.216Z,24.46
2022-09-07T16:26:40.810Z,24.37
2022-09-07T16:29:07.867Z,24.35
2022-09-07T16:31:35.031Z,24.33
2022-09-07T16:34:03.315Z,24.28
2022-09-07T16:36:30.683Z,24.23
2022-09-07T16:39:00.460Z,24.15
2022-09-07T16:41:31.870Z,24.06
2022-09-07T16:43:58.986Z,23.93
2022-09-07T16:46:28.931Z,23.81
2022-09-07T16:48:55.557Z,23.73
2022-09-07T16:51:23.677Z,23.65
2022-09-07T16:53:53.187Z,23.60
2022-09-07T16:56:23.609Z,23.52
2022-09-07T16:59:00.123Z,23.44
2022-09-07T17:01:29.400Z,23.32
2022-09-07T17:03:56.454Z,23.17
2022-09-07T17:06:25.070Z,23.10
2022-09-07T17:08:52.470Z,23.09
2022-09-07T17:11:21.506Z,23.04
2022-09-07T17:13:48.480Z,22.95
2022-09-07T17:16:27.376Z,22.88
2022-09-07T17:21:41.872Z,22.77
2022-09-07T17:24:10.524Z,22.73
2022-09-07T17:26:37.752Z,22.70
2022-09-07T17:29:04.354Z,22.62
2022-09-07T17:34:20.213Z,22.48
2022-09-07T17:36:47.132Z,22.45
2022-09-07T17:39:16.428Z,22.41
2022-09-07T17:41:43.835Z,22.38
2022-09-07T17:44:10.802Z,22.28
2022-09-07T17:46:37.658Z,22.27
2022-09-07T17:49:04.441Z,22.23
2022-09-07T17:51:32.312Z,22.20
2022-09-07T17:54:02.670Z,22.19
2022-09-07T17:56:31.100Z,22.15
2022-09-07T18:01:45.992Z,21.98
2022-09-07T18:04:13.242Z,21.90
2022-09-07T18:06:41.089Z,21.77
2022-09-07T18:09:08.110Z,21.70
2022-09-07T18:11:50.894Z,21.65
2022-09-07T18:14:18.931Z,21.55
2022-09-07T18:16:47.705Z,21.53
2022-09-07T18:19:14.564Z,21.43
2022-09-07T18:21:43.113Z,21.35
2022-09-07T18:24:19.720Z,21.27
2022-09-07T18:26:51.742Z,21.27
2022-09-07T18:29:30.174Z,21.22
2022-09-07T18:31:58.949Z,21.17
2022-09-07T18:34:26.364Z,21.16
2022-09-07T18:36:52.907Z,21.11
2022-09-07T18:39:19.428Z,21.07
2022-09-07T18:41:46.058Z,20.99
2022-09-07T18:46:59.204Z,20.87
2022-09-07T18:49:25.962Z,20.82
2022-09-07T18:54:41.319Z,20.72
2022-09-07T18:57:08.309Z,20.71
2022-09-07T18:59:34.890Z,20.64
2022-09-07T19:02:05.034Z,20.62
2022-09-07T19:07:20.935Z,20.54
2022-09-07T19:09:48.346Z,20.47
2022-09-07T19:12:15.214Z,20.42
2022-09-07T19:14:42.290Z,20.34
2022-09-07T19:17:11.057Z,20.33
2022-09-07T19:19:39.057Z,20.35
2022-09-07T19:22:06.104Z,20.33
2022-09-07T19:24:33.253Z,20.32
2022-09-07T19:27:01.052Z,20.30
2022-09-07T19:29:28.669Z,20.26
2022-09-07T19:32:04.935Z,20.23
2022-09-07T19:34:36.785Z,20.17
2022-09-07T19:37:04.810Z,20.16
2022-09-07T19:39:31.594Z,20.13
2022-09-07T19:41:58.556Z,20.13
2022-09-07T19:44:25.371Z,20.10
2022-09-07T19:46:51.997Z,20.03
2022-09-07T19:49:18.602Z,19.97
2022-09-07T19:51:45.259Z,19.88
2022-09-07T19:54:13.599Z,19.86
2022-09-07T19:56:42.437Z,19.80
2022-09-07T19:59:09.506Z,19.71
2022-09-07T20:01:36.320Z,19.65
2022-09-07T20:04:06.183Z,19.59
2022-09-07T20:06:33.842Z,19.56
2022-09-07T20:09:01.414Z,19.49
2022-09-07T20:11:28.787Z,19.45
2022-09-07T20:13:57.035Z,19.46
2022-09-07T20:16:24.952Z,19.47
2022-09-07T20:18:51.892Z,19.50
2022-09-07T20:21:24.778Z,19.53
2022-09-07T20:23:51.731Z,19.52
2022-09-07T20:26:20.987Z,19.54
2022-09-07T20:29:10.671Z,19.56
2022-09-07T20:31:40.231Z,19.62
2022-09-07T20:34:06.838Z,19.67
2022-09-07T20:36:33.396Z,19.75
2022-09-07T20:39:00.001Z,19.79
2022-09-07T20:41:29.217Z,19.85
2022-09-07T20:43:57.022Z,19.90
2022-09-07T20:46:23.659Z,19.94
2022-09-07T20:48:50.180Z,20.00
2022-09-07T20:51:21.415Z,20.00
2022-09-07T20:53:49.102Z,19.98
2022-09-07T20:56:21.668Z,19.89
2022-09-07T20:58:53.326Z,19.74
2022-09-07T21:01:21.252Z,19.60
2022-09-07T21:03:51.140Z,19.50
2022-09-07T21:06:19.553Z,19.45
2022-09-07T21:08:47.280Z,19.39
2022-09-07T21:11:22.707Z,19.30
2022-09-07T21:13:55.906Z,19.28
2022-09-07T21:16:22.597Z,19.29
2022-09-07T21:18:53.919Z,19.31
2022-09-07T21:21:21.192Z,19.22
2022-09-07T21:23:48.518Z,19.07
2022-09-07T21:26:15.291Z,19.09
2022-09-07T21:28:41.839Z,19.06
2022-09-07T21:31:09.596Z,19.11
2022-09-07T21:33:37.644Z,19.05
2022-09-07T21:36:10.487Z,19.10
2022-09-07T21:38:39.739Z,19.06
2022-09-07T21:41:08.151Z,19.08
2022-09-07T21:43:35.371Z,19.03
2022-09-07T21:46:11.094Z,18.94
2022-09-07T21:48:38.108Z,18.93
2022-09-07T21:51:05.518Z,18.75
2022-09-07T21:53:32.129Z,18.57
2022-09-07T21:56:04.668Z,18.52
2022-09-07T21:58:32.453Z,18.50
2022-09-07T22:01:03.366Z,18.29
2022-09-07T22:03:29.983Z,18.27
2022-09-07T22:05:56.577Z,18.32
2022-09-07T22:08:23.096Z,18.39
2022-09-07T22:10:49.754Z,18.40
2022-09-07T22:13:16.329Z,18.46
2022-09-07T22:15:42.992Z,18.42
2022-09-07T22:18:12.584Z,18.32
2022-09-07T22:20:40.155Z,18.24
2022-09-07T22:23:06.757Z,18.20
2022-09-07T22:25:34.759Z,18.20
2022-09-07T22:28:01.459Z,18.29
2022-09-07T22:30:28.041Z,18.38
2022-09-07T22:32:54.846Z,18.42
2022-09-07T22:35:24.061Z,18.48
2022-09-07T22:37:50.599Z,18.45
2022-09-07T22:40:17.255Z,18.49
2022-09-07T22:42:43.833Z,18.46
2022-09-07T22:45:10.635Z,18.44
2022-09-07T22:47:37.190Z,18.42
2022-09-07T22:50:03.976Z,18.26
2022-09-07T22:52:30.581Z,18.21
2022-09-07T22:54:57.108Z,18.13
2022-09-07T22:57:23.734Z,18.10
2022-09-07T22:59:51.740Z,18.10
2022-09-07T23:02:18.338Z,18.02
2022-09-07T23:04:45.056Z,17.97
2022-09-07T23:07:11.756Z,17.86
2022-09-07T23:09:38.315Z,17.87
2022-09-07T23:12:04.955Z,17.78
2022-09-07T23:14:31.505Z,17.86
2022-09-07T23:16:58.095Z,17.76
2022-09-07T23:19:24.746Z,17.71
2022-09-07T23:21:51.585Z,17.73
2022-09-07T23:24:19.152Z,17.71
2022-09-07T23:26:46.961Z,17.78
2022-09-07T23:29:14.646Z,17.76
2022-09-07T23:31:42.135Z,17.69
2022-09-07T23:34:09.327Z,17.69
2022-09-07T23:36:37.130Z,17.63
2022-09-07T23:39:04.147Z,17.62
2022-09-07T23:41:30.860Z,17.61
2022-09-07T23:43:57.748Z,17.52
2022-09-07T23:46:24.532Z,17.52
2022-09-07T23:48:51.414Z,17.54
2022-09-07T23:51:23.053Z,17.55
2022-09-07T23:53:51.930Z,17.64
2022-09-07T23:56:18.516Z,17.66
2022-09-07T23:58:45.143Z,17.75
